createdAt,value
2023-04-16T00:00:56.292Z,24.35
2023-04-16T00:01:56.400Z,24.36
2023-04-16T00:02:56.555Z,24.35
2023-04-16T00:03:56.642Z,24.35
2023-04-16T00:04:56.463Z,24.34
2023-04-16T00:05:56.521Z,24.36
2023-04-16T00:06:56.468Z,24.36
2023-04-16T00:07:56.480Z,24.38
2023-04-16T00:08:56.514Z,24.36
2023-04-16T00:09:56.532Z,24.39
2023-04-16T00:10:56.580Z,24.38
2023-04-16T00:11:58.414Z,24.38
2023-04-16T00:12:56.681Z,24.39
2023-04-16T00:13:56.670Z,24.38
2023-04-16T00:14:56.883Z,24.39
2023-04-16T00:15:56.774Z,24.42
2023-04-16T00:16:56.838Z,24.41
2023-04-16T00:17:56.929Z,24.42
2023-04-16T00:18:56.883Z,24.39
2023-04-16T00:19:56.935Z,24.39
2023-04-16T00:20:57.058Z,24.39
2023-04-16T00:21:57.294Z,24.41
2023-04-16T00:22:57.087Z,24.41
2023-04-16T00:23:57.102Z,24.41
2023-04-16T00:24:57.113Z,24.38
2023-04-16T00:25:57.185Z,24.42
2023-04-16T00:26:57.239Z,24.41
2023-04-16T00:27:57.258Z,24.39
2023-04-16T00:28:57.273Z,24.39
2023-04-16T00:29:57.295Z,24.38
2023-04-16T00:30:57.380Z,24.39
2023-04-16T00:31:57.412Z,24.39
2023-04-16T00:32:57.443Z,24.38
2023-04-16T00:33:57.520Z,24.38
2023-04-16T00:34:57.549Z,24.38
2023-04-16T00:35:57.569Z,24.36
2023-04-16T00:36:57.594Z,24.36
2023-04-16T00:37:57.607Z,24.38
2023-04-16T00:38:57.619Z,24.38
2023-04-16T00:39:57.676Z,24.38
2023-04-16T00:40:57.679Z,24.41
2023-04-16T00:41:57.844Z,24.38
2023-04-16T00:42:57.742Z,24.39
2023-04-16T00:43:57.776Z,24.39
2023-04-16T00:44:57.764Z,24.38
2023-04-16T00:45:57.845Z,24.41
2023-04-16T00:46:57.838Z,24.39
2023-04-16T00:47:59.938Z,24.41
2023-04-16T00:48:58.108Z,24.41
2023-04-16T00:49:58.094Z,24.39
2023-04-16T00:50:58.161Z,24.41
2023-04-16T00:51:58.298Z,24.41
2023-04-16T00:52:58.203Z,24.38
2023-04-16T00:53:58.220Z,24.38
2023-04-16T00:54:58.242Z,24.39
2023-04-16T00:55:58.277Z,24.39
2023-04-16T00:56:58.289Z,24.36
2023-04-16T00:57:58.341Z,24.38
2023-04-16T00:58:58.378Z,24.39
2023-04-16T00:59:58.379Z,24.39
2023-04-16T01:00:58.456Z,24.38
2023-04-16T01:01:58.640Z,24.38
2023-04-16T01:02:58.651Z,24.38
2023-04-16T01:03:58.727Z,24.38
2023-04-16T01:04:58.673Z,24.38
2023-04-16T01:05:58.761Z,24.36
2023-04-16T01:06:58.816Z,24.38
2023-04-16T01:07:58.848Z,24.38
2023-04-16T01:08:58.915Z,24.36
2023-04-16T01:09:58.991Z,24.39
2023-04-16T01:10:59.018Z,24.38
2023-04-16T01:11:59.085Z,24.38
2023-04-16T01:12:59.154Z,24.36
2023-04-16T01:13:59.230Z,24.36
2023-04-16T01:14:59.240Z,24.35
2023-04-16T01:15:59.318Z,24.38
2023-04-16T01:16:59.330Z,24.38
2023-04-16T01:17:59.401Z,24.39
2023-04-16T01:18:59.466Z,24.36
2023-04-16T01:19:59.483Z,24.39
2023-04-16T01:20:59.519Z,24.41
2023-04-16T01:21:59.587Z,24.38
2023-04-16T01:22:59.586Z,24.38
2023-04-16T01:23:59.647Z,24.39
2023-04-16T01:24:59.668Z,24.39
2023-04-16T01:25:59.802Z,24.39
2023-04-16T01:26:59.811Z,24.39
2023-04-16T01:27:59.770Z,24.38
2023-04-16T01:28:59.873Z,24.41
2023-04-16T01:29:59.874Z,24.41
2023-04-16T01:30:59.917Z,24.38
2023-04-16T01:31:59.950Z,24.39
2023-04-16T01:33:00.060Z,24.38
2023-04-16T01:34:00.001Z,24.38
2023-04-16T01:35:00.025Z,24.36
2023-04-16T01:36:00.081Z,24.36
2023-04-16T01:37:00.159Z,24.35
2023-04-16T01:38:00.164Z,24.36
2023-04-16T01:39:00.224Z,24.36
2023-04-16T01:40:00.225Z,24.35
2023-04-16T01:41:00.296Z,24.34
2023-04-16T01:42:00.274Z,24.36
2023-04-16T01:43:00.311Z,24.36
2023-04-16T01:44:00.313Z,24.35
2023-04-16T01:45:00.330Z,24.34
2023-04-16T01:46:00.368Z,24.35
2023-04-16T01:47:00.466Z,24.34
2023-04-16T01:48:00.460Z,24.30
2023-04-16T01:49:00.469Z,24.34
2023-04-16T01:50:00.448Z,24.32
2023-04-16T01:51:00.479Z,24.32
2023-04-16T01:52:00.491Z,24.32
2023-04-16T01:53:00.500Z,24.32
2023-04-16T01:54:00.567Z,24.31
2023-04-16T01:55:00.556Z,24.34
2023-04-16T01:56:00.576Z,24.31
2023-04-16T01:57:00.582Z,24.31
2023-04-16T01:58:00.558Z,24.34
2023-04-16T01:59:00.576Z,24.32
2023-04-16T02:00:00.596Z,24.34
2023-04-16T02:01:00.749Z,24.35
2023-04-16T02:02:00.740Z,24.36
2023-04-16T02:03:00.868Z,24.36
2023-04-16T02:04:00.701Z,24.38
2023-04-16T02:05:00.640Z,24.38
2023-04-16T02:06:00.653Z,24.36
2023-04-16T02:07:00.701Z,24.38
2023-04-16T02:08:00.736Z,24.38
2023-04-16T02:09:00.777Z,24.38
2023-04-16T02:10:00.799Z,24.36
2023-04-16T02:11:00.790Z,24.38
2023-04-16T02:12:00.824Z,24.38
2023-04-16T02:13:00.898Z,24.38
2023-04-16T02:14:00.875Z,24.36
2023-04-16T02:15:00.906Z,24.36
2023-04-16T02:16:00.932Z,24.35
2023-04-16T02:17:00.946Z,24.36
2023-04-16T02:18:01.075Z,24.36
2023-04-16T02:19:01.000Z,24.39
2023-04-16T02:20:00.969Z,24.36
2023-04-16T02:21:00.989Z,24.35
2023-04-16T02:22:00.998Z,24.38
2023-04-16T02:23:01.010Z,24.35
2023-04-16T02:24:00.979Z,24.36
2023-04-16T02:25:01.001Z,24.36
2023-04-16T02:26:00.983Z,24.36
2023-04-16T02:27:00.978Z,24.36
2023-04-16T02:28:01.016Z,24.35
2023-04-16T02:29:01.017Z,24.38
2023-04-16T02:30:01.038Z,24.35
2023-04-16T02:31:01.009Z,24.34
2023-04-16T02:32:01.101Z,24.36
2023-04-16T02:33:01.111Z,24.36
2023-04-16T02:34:00.982Z,24.35
2023-04-16T02:35:00.995Z,24.35
2023-04-16T02:36:01.004Z,24.36
2023-04-16T02:37:00.984Z,24.36
2023-04-16T02:38:01.032Z,24.36
2023-04-16T02:39:01.014Z,24.34
2023-04-16T02:40:01.008Z,24.36
2023-04-16T02:41:01.027Z,24.35
2023-04-16T02:42:01.081Z,24.36
2023-04-16T02:43:01.072Z,24.35
2023-04-16T02:44:01.055Z,24.34
2023-04-16T02:45:01.095Z,24.35
2023-04-16T02:46:01.157Z,24.36
2023-04-16T02:47:01.195Z,24.34
2023-04-16T02:48:01.257Z,24.35
2023-04-16T02:49:01.182Z,24.35
2023-04-16T02:50:01.190Z,24.35
2023-04-16T02:51:01.191Z,24.34
2023-04-16T02:52:01.229Z,24.35
2023-04-16T02:53:01.280Z,24.34
2023-04-16T02:54:01.320Z,24.36
2023-04-16T02:55:01.337Z,24.36
2023-04-16T02:56:01.317Z,24.35
2023-04-16T02:57:01.379Z,24.35
2023-04-16T02:58:01.509Z,24.35
2023-04-16T02:59:01.433Z,24.35
2023-04-16T03:00:01.491Z,24.34
2023-04-16T03:01:01.505Z,24.32
2023-04-16T03:02:01.567Z,24.34
2023-04-16T03:03:01.656Z,24.34
2023-04-16T03:04:01.731Z,24.32
2023-04-16T03:05:01.580Z,24.32
2023-04-16T03:06:01.601Z,24.34
2023-04-16T03:07:01.637Z,24.34
2023-04-16T03:08:01.690Z,24.31
2023-04-16T03:09:01.664Z,24.34
2023-04-16T03:10:01.664Z,24.35
2023-04-16T03:11:01.678Z,24.35
2023-04-16T03:12:01.736Z,24.34
2023-04-16T03:13:01.769Z,24.34
2023-04-16T03:14:01.775Z,24.32
2023-04-16T03:15:01.776Z,24.35
2023-04-16T03:16:01.977Z,24.32
2023-04-16T03:17:01.893Z,24.35
2023-04-16T03:18:01.925Z,24.35
2023-04-16T03:19:01.931Z,24.32
2023-04-16T03:20:01.956Z,24.31
2023-04-16T03:21:02.031Z,24.31
2023-04-16T03:22:02.056Z,24.30
2023-04-16T03:23:02.019Z,24.28
2023-04-16T03:24:02.042Z,24.30
2023-04-16T03:25:02.030Z,24.30
2023-04-16T03:26:02.047Z,24.32
2023-04-16T03:27:02.042Z,24.31
2023-04-16T03:28:02.037Z,24.31
2023-04-16T03:29:02.046Z,24.31
2023-04-16T03:30:02.096Z,24.32
2023-04-16T03:31:02.082Z,24.30
2023-04-16T03:32:02.072Z,24.32
2023-04-16T03:33:02.148Z,24.31
2023-04-16T03:34:02.112Z,24.30
2023-04-16T03:35:02.137Z,24.30
2023-04-16T03:36:02.107Z,24.28
2023-04-16T03:37:02.129Z,24.28
2023-04-16T03:38:02.115Z,24.27
2023-04-16T03:39:02.167Z,24.28
2023-04-16T03:40:02.136Z,24.27
2023-04-16T03:41:02.142Z,24.25
2023-04-16T03:42:02.230Z,24.30
2023-04-16T03:43:02.187Z,24.25
2023-04-16T03:44:02.353Z,24.28
2023-04-16T03:45:02.186Z,24.28
2023-04-16T03:46:02.220Z,24.30
2023-04-16T03:47:02.256Z,24.28
2023-04-16T03:48:02.245Z,24.30
2023-04-16T03:49:02.238Z,24.31
2023-04-16T03:50:02.272Z,24.30
2023-04-16T03:51:02.230Z,24.30
2023-04-16T03:52:02.250Z,24.30
2023-04-16T03:53:02.303Z,24.32
2023-04-16T03:54:02.259Z,24.31
2023-04-16T03:55:02.274Z,24.30
2023-04-16T03:56:02.256Z,24.31
2023-04-16T03:57:02.324Z,24.31
2023-04-16T03:58:02.268Z,24.30
2023-04-16T03:59:02.329Z,24.31
2023-04-16T04:00:02.289Z,24.30
2023-04-16T04:01:02.361Z,24.32
2023-04-16T04:02:02.444Z,24.31
2023-04-16T04:03:02.690Z,24.31
2023-04-16T04:04:02.572Z,24.31
2023-04-16T04:05:02.626Z,24.28
2023-04-16T04:06:02.560Z,24.31
2023-04-16T04:07:02.602Z,24.31
2023-04-16T04:08:02.636Z,24.34
2023-04-16T04:09:02.619Z,24.31
2023-04-16T04:10:02.656Z,24.30
2023-04-16T04:11:02.638Z,24.31
2023-04-16T04:12:02.679Z,24.30
2023-04-16T04:13:02.687Z,24.32
2023-04-16T04:14:02.656Z,24.35
2023-04-16T04:15:02.686Z,24.32
2023-04-16T04:16:02.684Z,24.31
2023-04-16T04:17:02.686Z,24.32
2023-04-16T04:18:02.772Z,24.31
2023-04-16T04:19:02.700Z,24.32
2023-04-16T04:20:02.738Z,24.27
2023-04-16T04:21:02.733Z,24.30
2023-04-16T04:22:02.751Z,24.31
2023-04-16T04:23:02.779Z,24.31
2023-04-16T04:24:02.808Z,24.34
2023-04-16T04:25:02.802Z,24.32
2023-04-16T04:26:02.776Z,24.31
2023-04-16T04:27:02.791Z,24.30
2023-04-16T04:28:02.836Z,24.30
2023-04-16T04:29:02.862Z,24.31
2023-04-16T04:30:02.850Z,24.30
2023-04-16T04:31:02.864Z,24.28
2023-04-16T04:32:02.973Z,24.30
2023-04-16T04:33:02.896Z,24.30
2023-04-16T04:34:02.872Z,24.30
2023-04-16T04:35:02.893Z,24.30
2023-04-16T04:36:02.934Z,24.31
2023-04-16T04:37:02.873Z,24.32
2023-04-16T04:38:03.004Z,24.31
2023-04-16T04:39:02.925Z,24.32
2023-04-16T04:40:02.941Z,24.34
2023-04-16T04:41:03.031Z,24.32
2023-04-16T04:42:02.995Z,24.30
2023-04-16T04:43:03.010Z,24.31
2023-04-16T04:44:03.017Z,24.30
2023-04-16T04:45:02.982Z,24.30
2023-04-16T04:46:03.028Z,24.28
2023-04-16T04:47:03.001Z,24.28
2023-04-16T04:48:03.052Z,24.28
2023-04-16T04:49:03.363Z,24.27
2023-04-16T04:50:03.006Z,24.27
2023-04-16T04:51:04.715Z,24.25
2023-04-16T04:52:03.003Z,24.27
2023-04-16T04:53:03.010Z,24.27
2023-04-16T04:54:03.016Z,24.25
2023-04-16T04:55:03.042Z,24.27
2023-04-16T04:56:12.490Z,24.28
2023-04-16T04:57:04.013Z,24.27
2023-04-16T04:58:03.010Z,24.28
2023-04-16T04:59:03.068Z,24.27
2023-04-16T05:00:02.993Z,24.27
2023-04-16T05:01:02.984Z,24.25
2023-04-16T05:02:02.996Z,24.24
2023-04-16T05:03:03.062Z,24.25
2023-04-16T05:04:03.010Z,24.28
2023-04-16T05:05:03.105Z,24.27
2023-04-16T05:06:02.999Z,24.28
2023-04-16T05:07:02.957Z,24.28
2023-04-16T05:08:02.938Z,24.27
2023-04-16T05:09:02.956Z,24.28
2023-04-16T05:10:02.975Z,24.27
2023-04-16T05:11:02.929Z,24.27
2023-04-16T05:12:02.953Z,24.30
2023-04-16T05:13:02.936Z,24.28
2023-04-16T05:14:02.934Z,24.30
2023-04-16T05:15:02.938Z,24.31
2023-04-16T05:16:03.012Z,24.28
2023-04-16T05:17:03.078Z,24.30
2023-04-16T05:18:03.146Z,24.25
2023-04-16T05:19:03.034Z,24.28
2023-04-16T05:20:03.126Z,24.27
2023-04-16T05:21:03.054Z,24.28
2023-04-16T05:22:03.047Z,24.28
2023-04-16T05:23:03.076Z,24.28
2023-04-16T05:24:03.079Z,24.27
2023-04-16T05:25:03.076Z,24.25
2023-04-16T05:26:03.298Z,24.28
2023-04-16T05:27:03.082Z,24.27
2023-04-16T05:28:03.111Z,24.25
2023-04-16T05:29:03.081Z,24.24
2023-04-16T05:30:03.117Z,24.27
2023-04-16T05:31:03.172Z,24.30
2023-04-16T05:32:03.207Z,24.27
2023-04-16T05:33:03.105Z,24.27
2023-04-16T05:34:03.115Z,24.27
2023-04-16T05:35:03.120Z,24.27
2023-04-16T05:36:03.166Z,24.27
2023-04-16T05:37:03.140Z,24.27
2023-04-16T05:38:03.148Z,24.27
2023-04-16T05:39:03.258Z,24.25
2023-04-16T05:40:03.172Z,24.28
2023-04-16T05:41:03.154Z,24.27
2023-04-16T05:42:03.165Z,24.25
2023-04-16T05:43:03.183Z,24.25
2023-04-16T05:44:03.192Z,24.27
2023-04-16T05:45:03.154Z,24.27
2023-04-16T05:46:03.211Z,24.24
2023-04-16T05:47:03.161Z,24.24
2023-04-16T05:48:03.193Z,24.25
2023-04-16T05:49:03.178Z,24.24
2023-04-16T05:50:03.144Z,24.25
2023-04-16T05:51:03.174Z,24.27
2023-04-16T05:52:03.183Z,24.27
2023-04-16T05:53:03.150Z,24.27
2023-04-16T05:54:03.292Z,24.27
2023-04-16T05:55:03.182Z,24.28
2023-04-16T05:56:03.198Z,24.30
2023-04-16T05:57:03.202Z,24.28
2023-04-16T05:58:03.182Z,24.25
2023-04-16T05:59:03.225Z,24.27
2023-04-16T06:00:03.224Z,24.27
2023-04-16T06:01:03.211Z,24.27
2023-04-16T06:02:03.293Z,24.27
2023-04-16T06:03:03.432Z,24.27
2023-04-16T06:04:03.675Z,24.27
2023-04-16T06:05:03.269Z,24.27
2023-04-16T06:06:03.301Z,24.24
2023-04-16T06:07:03.209Z,24.28
2023-04-16T06:08:03.238Z,24.25
2023-04-16T06:09:03.273Z,24.24
2023-04-16T06:10:03.243Z,24.27
2023-04-16T06:11:03.399Z,24.28
2023-04-16T06:12:03.321Z,24.27
2023-04-16T06:13:03.296Z,24.27
2023-04-16T06:14:03.331Z,24.25
2023-04-16T06:15:03.367Z,24.25
2023-04-16T06:16:03.369Z,24.27
2023-04-16T06:17:03.313Z,24.27
2023-04-16T06:18:03.439Z,24.27
2023-04-16T06:19:03.338Z,24.27
2023-04-16T06:20:03.359Z,24.25
2023-04-16T06:21:03.361Z,24.28
2023-04-16T06:22:03.394Z,24.24
2023-04-16T06:23:03.400Z,24.27
2023-04-16T06:24:03.425Z,24.24
2023-04-16T06:25:03.444Z,24.25
2023-04-16T06:26:03.428Z,24.24
2023-04-16T06:27:03.589Z,24.24
2023-04-16T06:28:03.444Z,24.24
2023-04-16T06:29:03.456Z,24.25
2023-04-16T06:30:03.478Z,24.24
2023-04-16T06:31:03.475Z,24.24
2023-04-16T06:32:03.519Z,24.25
2023-04-16T06:33:03.518Z,24.24
2023-04-16T06:34:03.500Z,24.22
2023-04-16T06:35:03.536Z,24.25
2023-04-16T06:36:03.535Z,24.25
2023-04-16T06:37:03.547Z,24.25
2023-04-16T06:38:03.701Z,24.28
2023-04-16T06:39:03.581Z,24.27
2023-04-16T06:40:03.549Z,24.24
2023-04-16T06:41:03.536Z,24.22
2023-04-16T06:42:03.562Z,24.25
2023-04-16T06:43:03.532Z,24.22
2023-04-16T06:44:03.535Z,24.25
2023-04-16T06:45:03.567Z,24.24
2023-04-16T06:46:03.540Z,24.22
2023-04-16T06:47:03.658Z,24.22
2023-04-16T06:48:03.602Z,24.24
2023-04-16T06:49:03.536Z,24.25
2023-04-16T06:50:03.550Z,24.27
2023-04-16T06:51:03.573Z,24.24
2023-04-16T06:52:05.833Z,24.27
2023-04-16T06:53:03.646Z,24.22
2023-04-16T06:54:03.664Z,24.22
2023-04-16T06:55:03.706Z,24.22
2023-04-16T06:56:03.704Z,24.20
2023-04-16T06:57:03.742Z,24.22
2023-04-16T06:58:03.742Z,24.25
2023-04-16T06:59:03.770Z,24.25
2023-04-16T07:00:03.925Z,24.25
2023-04-16T07:01:03.853Z,24.25
2023-04-16T07:02:03.767Z,24.22
2023-04-16T07:03:04.102Z,24.24
2023-04-16T07:04:04.006Z,24.24
2023-04-16T07:05:03.804Z,24.25
2023-04-16T07:06:03.802Z,24.25
2023-04-16T07:07:03.843Z,24.24
2023-04-16T07:08:03.815Z,24.24
2023-04-16T07:09:03.919Z,24.22
2023-04-16T07:10:03.807Z,24.21
2023-04-16T07:11:03.834Z,24.24
2023-04-16T07:12:03.810Z,24.24
2023-04-16T07:13:03.843Z,24.21
2023-04-16T07:14:03.948Z,24.24
2023-04-16T07:15:03.800Z,24.27
2023-04-16T07:16:03.825Z,24.25
2023-04-16T07:17:03.834Z,24.28
2023-04-16T07:18:03.895Z,24.28
2023-04-16T07:19:03.893Z,24.28
2023-04-16T07:20:03.856Z,24.30
2023-04-16T07:21:03.862Z,24.28
2023-04-16T07:22:03.912Z,24.28
2023-04-16T07:23:03.892Z,24.28
2023-04-16T07:24:03.923Z,24.30
2023-04-16T07:25:03.891Z,24.28
2023-04-16T07:26:03.897Z,24.27
2023-04-16T07:27:03.941Z,24.28
2023-04-16T07:28:03.899Z,24.25
2023-04-16T07:29:03.904Z,24.25
2023-04-16T07:30:03.974Z,24.27
2023-04-16T07:31:03.940Z,24.27
2023-04-16T07:32:04.039Z,24.28
2023-04-16T07:33:04.025Z,24.27
2023-04-16T07:34:03.971Z,24.27
2023-04-16T07:35:03.976Z,24.27
2023-04-16T07:36:04.000Z,24.25
2023-04-16T07:37:04.054Z,24.27
2023-04-16T07:38:04.053Z,24.27
2023-04-16T07:39:04.044Z,24.25
2023-04-16T07:40:04.058Z,24.28
2023-04-16T07:41:04.135Z,24.28
2023-04-16T07:42:04.053Z,24.28
2023-04-16T07:43:04.077Z,24.27
2023-04-16T07:44:04.069Z,24.27
2023-04-16T07:45:04.090Z,24.27
2023-04-16T07:46:04.132Z,24.30
2023-04-16T07:47:05.564Z,24.27
2023-04-16T07:48:04.164Z,24.28
2023-04-16T07:49:04.064Z,24.30
2023-04-16T07:50:04.096Z,24.25
2023-04-16T07:51:04.078Z,24.25
2023-04-16T07:52:04.086Z,24.30
2023-04-16T07:53:04.095Z,24.25
2023-04-16T07:54:04.071Z,24.25
2023-04-16T07:55:04.097Z,24.27
2023-04-16T07:56:04.073Z,24.22
2023-04-16T07:57:04.084Z,24.25
2023-04-16T07:58:04.072Z,24.25
2023-04-16T07:59:18.501Z,24.24
2023-04-16T08:00:05.079Z,24.24
2023-04-16T08:01:04.070Z,24.25
2023-04-16T08:02:04.128Z,24.24
2023-04-16T08:03:04.241Z,24.25
2023-04-16T08:04:04.113Z,24.25
2023-04-16T08:05:04.045Z,24.27
2023-04-16T08:06:04.049Z,24.27
2023-04-16T08:07:04.017Z,24.27
2023-04-16T08:08:04.028Z,24.27
2023-04-16T08:09:04.031Z,24.27
2023-04-16T08:10:04.023Z,24.27
2023-04-16T08:11:03.989Z,24.28
2023-04-16T08:12:04.000Z,24.28
2023-04-16T08:13:03.971Z,24.25
2023-04-16T08:14:03.996Z,24.27
2023-04-16T08:15:03.962Z,24.27
2023-04-16T08:16:04.002Z,24.25
2023-04-16T08:17:03.988Z,24.27
2023-04-16T08:18:03.983Z,24.27
2023-04-16T08:19:03.936Z,24.27
2023-04-16T08:20:03.949Z,24.27
2023-04-16T08:21:03.931Z,24.28
2023-04-16T08:22:03.919Z,24.25
2023-04-16T08:23:03.906Z,24.27
2023-04-16T08:24:03.895Z,24.27
2023-04-16T08:25:03.938Z,24.27
2023-04-16T08:26:03.894Z,24.24
2023-04-16T08:27:15.422Z,24.27
2023-04-16T08:28:04.891Z,24.27
2023-04-16T08:29:03.907Z,24.27
2023-04-16T08:30:03.856Z,24.28
2023-04-16T08:31:03.904Z,24.25
2023-04-16T08:32:03.886Z,24.28
2023-04-16T08:33:03.894Z,24.27
2023-04-16T08:34:03.881Z,24.25
2023-04-16T08:35:03.834Z,24.28
2023-04-16T08:36:03.836Z,24.28
2023-04-16T08:37:03.827Z,24.22
2023-04-16T08:38:03.804Z,24.25
2023-04-16T08:39:03.816Z,24.25
2023-04-16T08:40:03.822Z,24.25
2023-04-16T08:41:03.824Z,24.28
2023-04-16T08:42:03.822Z,24.28
2023-04-16T08:43:03.774Z,24.27
2023-04-16T08:44:03.793Z,24.30
2023-04-16T08:45:03.803Z,24.27
2023-04-16T08:46:03.757Z,24.27
2023-04-16T08:47:03.860Z,24.27
2023-04-16T08:48:03.813Z,24.25
2023-04-16T08:49:03.795Z,24.25
2023-04-16T08:50:03.792Z,24.24
2023-04-16T08:51:03.766Z,24.30
2023-04-16T08:52:03.785Z,24.25
2023-04-16T08:53:03.806Z,24.28
2023-04-16T08:54:03.815Z,24.27
2023-04-16T08:55:03.814Z,24.25
2023-04-16T08:56:03.826Z,24.27
2023-04-16T08:57:03.858Z,24.28
2023-04-16T08:58:03.866Z,24.27
2023-04-16T08:59:03.902Z,24.28
2023-04-16T09:00:03.875Z,24.27
2023-04-16T09:01:03.962Z,24.27
2023-04-16T09:02:04.071Z,24.25
2023-04-16T09:03:04.100Z,24.28
2023-04-16T09:04:04.038Z,24.24
2023-04-16T09:05:03.916Z,24.27
2023-04-16T09:06:03.920Z,24.27
2023-04-16T09:07:03.937Z,24.25
2023-04-16T09:08:03.963Z,24.27
2023-04-16T09:09:03.969Z,24.28
2023-04-16T09:10:03.970Z,24.28
2023-04-16T09:11:03.982Z,24.27
2023-04-16T09:12:03.992Z,24.25
2023-04-16T09:13:03.999Z,24.27
2023-04-16T09:14:03.988Z,24.30
2023-04-16T09:15:04.023Z,24.27
2023-04-16T09:16:04.086Z,24.28
2023-04-16T09:17:04.013Z,24.27
2023-04-16T09:18:04.043Z,24.25
2023-04-16T09:19:03.996Z,24.28
2023-04-16T09:20:04.018Z,24.25
2023-04-16T09:21:04.060Z,24.27
2023-04-16T09:22:04.033Z,24.28
2023-04-16T09:23:04.023Z,24.28
2023-04-16T09:24:04.036Z,24.25
2023-04-16T09:25:04.062Z,24.27
2023-04-16T09:26:04.043Z,24.27
2023-04-16T09:27:04.071Z,24.27
2023-04-16T09:28:04.061Z,24.28
2023-04-16T09:29:04.076Z,24.28
2023-04-16T09:30:04.079Z,24.28
2023-04-16T09:31:04.070Z,24.25
2023-04-16T09:32:04.130Z,24.25
2023-04-16T09:33:04.095Z,24.25
2023-04-16T09:34:04.070Z,24.28
2023-04-16T09:35:04.049Z,24.27
2023-04-16T09:36:04.062Z,24.27
2023-04-16T09:37:04.093Z,24.27
2023-04-16T09:38:04.048Z,24.27
2023-04-16T09:39:04.102Z,24.28
2023-04-16T09:40:04.077Z,24.27
2023-04-16T09:41:04.057Z,24.25
2023-04-16T09:42:04.073Z,24.25
2023-04-16T09:43:04.039Z,24.27
2023-04-16T09:44:04.063Z,24.27
2023-04-16T09:45:05.677Z,24.25
2023-04-16T09:46:08.299Z,24.25
2023-04-16T09:47:04.105Z,24.24
2023-04-16T09:48:04.200Z,24.25
2023-04-16T09:49:04.117Z,24.27
2023-04-16T09:50:04.057Z,24.27
2023-04-16T09:51:04.031Z,24.27
2023-04-16T09:52:04.542Z,24.27
2023-04-16T09:53:04.020Z,24.28
2023-04-16T09:54:04.013Z,24.27
2023-04-16T09:55:04.007Z,24.27
2023-04-16T09:56:04.040Z,24.25
2023-04-16T09:57:03.987Z,24.28
2023-04-16T09:58:03.966Z,24.24
2023-04-16T09:59:03.978Z,24.25
2023-04-16T10:00:04.007Z,24.27
2023-04-16T10:01:03.999Z,24.28
2023-04-16T10:02:15.649Z,24.25
2023-04-16T10:03:05.075Z,24.27
2023-04-16T10:04:04.018Z,24.27
2023-04-16T10:05:03.940Z,24.28
2023-04-16T10:06:03.952Z,24.27
2023-04-16T10:07:03.926Z,24.30
2023-04-16T10:08:03.946Z,24.27
2023-04-16T10:09:04.007Z,24.27
2023-04-16T10:10:03.919Z,24.25
2023-04-16T10:11:03.883Z,24.27
2023-04-16T10:12:03.891Z,24.24
2023-04-16T10:13:03.873Z,24.27
2023-04-16T10:14:03.895Z,24.25
2023-04-16T10:15:03.872Z,24.27
2023-04-16T10:16:03.886Z,24.24
2023-04-16T10:17:03.868Z,24.27
2023-04-16T10:18:03.863Z,24.25
2023-04-16T10:19:03.836Z,24.25
2023-04-16T10:20:03.825Z,24.24
2023-04-16T10:21:03.870Z,24.25
2023-04-16T10:22:03.847Z,24.25
2023-04-16T10:23:03.811Z,24.25
2023-04-16T10:24:03.849Z,24.25
2023-04-16T10:25:03.823Z,24.27
2023-04-16T10:26:03.845Z,24.24
2023-04-16T10:27:03.827Z,24.27
2023-04-16T10:28:03.848Z,24.25
2023-04-16T10:29:03.824Z,24.25
2023-04-16T10:30:03.846Z,24.27
2023-04-16T10:31:03.862Z,24.25
2023-04-16T10:32:03.828Z,24.25
2023-04-16T10:33:03.904Z,24.25
2023-04-16T10:34:03.842Z,24.25
2023-04-16T10:35:03.847Z,24.27
2023-04-16T10:36:07.447Z,24.24
2023-04-16T10:37:03.883Z,24.22
2023-04-16T10:38:03.833Z,24.24
2023-04-16T10:39:03.834Z,24.24
2023-04-16T10:40:03.900Z,24.25
2023-04-16T10:41:03.835Z,24.24
2023-04-16T10:42:03.797Z,24.24
2023-04-16T10:43:03.803Z,24.24
2023-04-16T10:44:03.803Z,24.25
2023-04-16T10:45:03.801Z,24.25
2023-04-16T10:46:03.809Z,24.22
2023-04-16T10:47:03.793Z,24.22
2023-04-16T10:48:03.769Z,24.24
2023-04-16T10:49:03.788Z,24.22
2023-04-16T10:50:03.754Z,24.25
2023-04-16T10:51:03.745Z,24.25
2023-04-16T10:52:03.748Z,24.24
2023-04-16T10:53:03.743Z,24.24
2023-04-16T10:54:04.017Z,24.22
2023-04-16T10:55:03.713Z,24.24
2023-04-16T10:56:03.716Z,24.24
2023-04-16T10:57:04.396Z,24.24
2023-04-16T10:58:03.691Z,24.24
2023-04-16T10:59:03.719Z,24.22
2023-04-16T11:00:03.693Z,24.25
2023-04-16T11:01:03.694Z,24.24
2023-04-16T11:02:03.764Z,24.21
2023-04-16T11:03:03.819Z,24.22
2023-04-16T11:04:03.899Z,24.22
2023-04-16T11:05:03.817Z,24.21
2023-04-16T11:06:03.743Z,24.20
2023-04-16T11:07:03.659Z,24.21
2023-04-16T11:08:03.633Z,24.22
2023-04-16T11:09:03.646Z,24.21
2023-04-16T11:10:03.633Z,24.22
2023-04-16T11:11:03.622Z,24.22
2023-04-16T11:12:03.638Z,24.24
2023-04-16T11:13:03.614Z,24.24
2023-04-16T11:14:03.610Z,24.25
2023-04-16T11:15:03.595Z,24.22
2023-04-16T11:16:03.622Z,24.22
2023-04-16T11:17:03.591Z,24.24
2023-04-16T11:18:03.679Z,24.24
2023-04-16T11:19:03.557Z,24.24
2023-04-16T11:20:03.646Z,24.24
2023-04-16T11:21:04.542Z,24.27
2023-04-16T11:22:03.545Z,24.24
2023-04-16T11:23:03.528Z,24.24
2023-04-16T11:24:03.535Z,24.25
2023-04-16T11:25:03.518Z,24.25
2023-04-16T11:26:03.511Z,24.24
2023-04-16T11:27:03.500Z,24.24
2023-04-16T11:28:03.518Z,24.22
2023-04-16T11:29:03.495Z,24.22
2023-04-16T11:30:03.512Z,24.24
2023-04-16T11:31:03.499Z,24.24
2023-04-16T11:32:03.527Z,24.24
2023-04-16T11:33:03.560Z,24.24
2023-04-16T11:34:03.542Z,24.25
2023-04-16T11:35:03.545Z,24.25
2023-04-16T11:36:03.579Z,24.25
2023-04-16T11:37:03.535Z,24.27
2023-04-16T11:38:03.551Z,24.27
2023-04-16T11:39:03.646Z,24.25
2023-04-16T11:40:03.589Z,24.25
2023-04-16T11:41:03.568Z,24.25
2023-04-16T11:42:03.651Z,24.25
2023-04-16T11:43:03.557Z,24.22
2023-04-16T11:44:03.615Z,24.21
2023-04-16T11:45:03.554Z,24.22
2023-04-16T11:46:10.337Z,24.22
2023-04-16T11:47:04.616Z,24.22
2023-04-16T11:48:03.617Z,24.22
2023-04-16T11:49:03.542Z,24.24
2023-04-16T11:50:03.542Z,24.24
2023-04-16T11:51:03.528Z,24.25
2023-04-16T11:52:03.499Z,24.25
2023-04-16T11:53:03.541Z,24.22
2023-04-16T11:54:03.550Z,24.24
2023-04-16T11:55:03.494Z,24.22
2023-04-16T11:56:03.504Z,24.22
2023-04-16T11:57:03.485Z,24.24
2023-04-16T11:58:03.502Z,24.24
2023-04-16T11:59:03.496Z,24.24
2023-04-16T12:00:04.985Z,24.24
2023-04-16T12:01:03.460Z,24.22
2023-04-16T12:02:03.537Z,24.24
2023-04-16T12:03:03.571Z,24.22
2023-04-16T12:04:03.614Z,24.25
2023-04-16T12:05:03.487Z,24.27
2023-04-16T12:06:03.412Z,24.24
2023-04-16T12:07:03.421Z,24.22
2023-04-16T12:08:03.450Z,24.24
2023-04-16T12:09:03.517Z,24.24
2023-04-16T12:10:03.425Z,24.22
2023-04-16T12:11:03.426Z,24.24
2023-04-16T12:12:03.459Z,24.25
2023-04-16T12:13:03.426Z,24.24
2023-04-16T12:14:03.466Z,24.24
2023-04-16T12:15:03.576Z,24.24
2023-04-16T12:16:03.447Z,24.25
2023-04-16T12:17:03.523Z,24.24
2023-04-16T12:18:03.478Z,24.24
2023-04-16T12:19:03.483Z,24.25
2023-04-16T12:20:03.462Z,24.22
2023-04-16T12:21:03.470Z,24.22
2023-04-16T12:22:03.469Z,24.21
2023-04-16T12:23:03.475Z,24.22
2023-04-16T12:24:03.477Z,24.24
2023-04-16T12:25:03.483Z,24.25
2023-04-16T12:26:03.478Z,24.22
2023-04-16T12:27:03.486Z,24.24
2023-04-16T12:28:03.467Z,24.24
2023-04-16T12:29:03.472Z,24.22
2023-04-16T12:30:03.447Z,24.21
2023-04-16T12:31:03.583Z,24.22
2023-04-16T12:32:03.474Z,24.22
2023-04-16T12:33:03.521Z,24.24
2023-04-16T12:34:03.470Z,24.22
2023-04-16T12:35:03.477Z,24.24
2023-04-16T12:36:03.483Z,24.24
2023-04-16T12:37:03.529Z,24.22
2023-04-16T12:38:03.553Z,24.22
2023-04-16T12:39:03.480Z,24.21
2023-04-16T12:40:03.475Z,24.22
2023-04-16T12:41:03.463Z,24.22
2023-04-16T12:42:03.473Z,24.22
2023-04-16T12:43:03.478Z,24.24
2023-04-16T12:44:03.548Z,24.22
2023-04-16T12:45:03.509Z,24.22
2023-04-16T12:46:04.460Z,24.21
2023-04-16T12:47:03.556Z,24.24
2023-04-16T12:48:03.529Z,24.21
2023-04-16T12:49:03.485Z,24.22
2023-04-16T12:50:03.515Z,24.22
2023-04-16T12:51:03.526Z,24.24
2023-04-16T12:52:03.494Z,24.24
2023-04-16T12:53:03.510Z,24.24